sensor_id;sensor_type;location;lat;lon;timestamp;P1;durP1;ratioP1;P2;durP2;ratioP2
8757;SDS011;4415;42.152;24.744;2023-06-22T00:01:47;10.57;;;9.50;;
8757;SDS011;4415;42.152;24.744;2023-06-22T00:04:13;10.73;;;9.60;;
8757;SDS011;4415;42.152;24.744;2023-06-22T00:06:38;10.70;;;9.80;;
8757;SDS011;4415;42.152;24.744;2023-06-22T00:09:04;11.68;;;10.68;;
8757;SDS011;4415;42.152;24.744;2023-06-22T00:11:29;12.75;;;11.55;;
8757;SDS011;4415;42.152;24.744;2023-06-22T00:13:56;16.38;;;12.05;;
8757;SDS011;4415;42.152;24.744;2023-06-22T00:16:21;14.02;;;11.70;;
8757;SDS011;4415;42.152;24.744;2023-06-22T00:18:47;19.85;;;11.90;;
8757;SDS011;4415;42.152;24.744;2023-06-22T00:21:13;14.43;;;13.02;;
8757;SDS011;4415;42.152;24.744;2023-06-22T00:23:39;15.77;;;12.13;;
8757;SDS011;4415;42.152;24.744;2023-06-22T00:26:04;13.60;;;12.20;;
8757;SDS011;4415;42.152;24.744;2023-06-22T00:28:30;13.55;;;12.20;;
8757;SDS011;4415;42.152;24.744;2023-06-22T00:30:55;13.38;;;11.07;;
8757;SDS011;4415;42.152;24.744;2023-06-22T00:33:21;13.18;;;11.82;;
8757;SDS011;4415;42.152;24.744;2023-06-22T00:35:46;13.70;;;12.40;;
8757;SDS011;4415;42.152;24.744;2023-06-22T00:38:11;13.00;;;11.80;;
8757;SDS011;4415;42.152;24.744;2023-06-22T00:40:37;14.27;;;11.85;;
8757;SDS011;4415;42.152;24.744;2023-06-22T00:43:03;13.05;;;11.88;;
8757;SDS011;4415;42.152;24.744;2023-06-22T00:45:29;14.40;;;11.93;;
8757;SDS011;4415;42.152;24.744;2023-06-22T00:47:58;16.42;;;12.07;;
8757;SDS011;4415;42.152;24.744;2023-06-22T00:50:25;13.63;;;12.38;;
8757;SDS011;4415;42.152;24.744;2023-06-22T00:52:54;14.65;;;11.98;;
8757;SDS011;4415;42.152;24.744;2023-06-22T00:55:22;15.23;;;13.23;;
8757;SDS011;4415;42.152;24.744;2023-06-22T00:57:48;16.73;;;13.07;;
8757;SDS011;4415;42.152;24.744;2023-06-22T01:00:17;18.67;;;12.60;;
8757;SDS011;4415;42.152;24.744;2023-06-22T01:02:44;15.73;;;12.05;;
8757;SDS011;4415;42.152;24.744;2023-06-22T01:05:16;13.32;;;12.13;;
8757;SDS011;4415;42.152;24.744;2023-06-22T01:13:01;14.25;;;13.00;;
8757;SDS011;4415;42.152;24.744;2023-06-22T01:15:28;14.77;;;13.57;;
8757;SDS011;4415;42.152;24.744;2023-06-22T01:17:58;15.33;;;13.77;;
8757;SDS011;4415;42.152;24.744;2023-06-22T01:20:25;15.35;;;13.93;;
8757;SDS011;4415;42.152;24.744;2023-06-22T01:25:28;15.43;;;14.03;;
8757;SDS011;4415;42.152;24.744;2023-06-22T01:29:02;15.23;;;13.98;;
8757;SDS011;4415;42.152;24.744;2023-06-22T01:31:08;14.80;;;13.43;;
8757;SDS011;4415;42.152;24.744;2023-06-22T01:33:37;15.18;;;13.98;;
8757;SDS011;4415;42.152;24.744;2023-06-22T01:36:06;14.65;;;13.15;;
8757;SDS011;4415;42.152;24.744;2023-06-22T01:38:32;14.40;;;13.10;;
8757;SDS011;4415;42.152;24.744;2023-06-22T01:40:58;13.43;;;12.35;;
8757;SDS011;4415;42.152;24.744;2023-06-22T01:43:26;13.32;;;12.05;;
8757;SDS011;4415;42.152;24.744;2023-06-22T01:45:56;13.32;;;12.25;;
8757;SDS011;4415;42.152;24.744;2023-06-22T01:48:23;13.75;;;12.52;;
8757;SDS011;4415;42.152;24.744;2023-06-22T01:50:50;12.50;;;11.48;;
8757;SDS011;4415;42.152;24.744;2023-06-22T01:53:17;12.77;;;11.48;;
8757;SDS011;4415;42.152;24.744;2023-06-22T01:55:42;13.27;;;11.95;;
8757;SDS011;4415;42.152;24.744;2023-06-22T01:58:07;13.02;;;11.93;;
8757;SDS011;4415;42.152;24.744;2023-06-22T02:00:33;12.47;;;11.47;;
8757;SDS011;4415;42.152;24.744;2023-06-22T02:03:08;12.52;;;11.30;;
8757;SDS011;4415;42.152;24.744;2023-06-22T02:05:37;12.20;;;11.23;;
8757;SDS011;4415;42.152;24.744;2023-06-22T02:08:13;12.43;;;11.52;;
8757;SDS011;4415;42.152;24.744;2023-06-22T02:10:44;11.93;;;10.97;;
8757;SDS011;4415;42.152;24.744;2023-06-22T02:13:11;11.53;;;10.53;;
8757;SDS011;4415;42.152;24.744;2023-06-22T02:15:38;13.37;;;11.83;;
8757;SDS011;4415;42.152;24.744;2023-06-22T02:18:03;12.60;;;11.70;;
8757;SDS011;4415;42.152;24.744;2023-06-22T02:20:30;13.20;;;11.97;;
8757;SDS011;4415;42.152;24.744;2023-06-22T02:22:55;14.57;;;12.63;;
8757;SDS011;4415;42.152;24.744;2023-06-22T02:25:20;12.55;;;11.35;;
8757;SDS011;4415;42.152;24.744;2023-06-22T02:27:46;13.17;;;12.07;;
8757;SDS011;4415;42.152;24.744;2023-06-22T02:30:11;13.57;;;12.37;;
8757;SDS011;4415;42.152;24.744;2023-06-22T02:32:37;14.20;;;13.10;;
8757;SDS011;4415;42.152;24.744;2023-06-22T02:35:06;12.97;;;11.97;;
8757;SDS011;4415;42.152;24.744;2023-06-22T02:37:33;13.30;;;12.17;;
8757;SDS011;4415;42.152;24.744;2023-06-22T02:40:00;13.53;;;12.47;;
8757;SDS011;4415;42.152;24.744;2023-06-22T02:42:26;14.43;;;13.07;;
8757;SDS011;4415;42.152;24.744;2023-06-22T02:44:51;13.80;;;12.70;;
8757;SDS011;4415;42.152;24.744;2023-06-22T02:47:16;14.77;;;13.30;;
8757;SDS011;4415;42.152;24.744;2023-06-22T02:49:42;15.03;;;13.70;;
8757;SDS011;4415;42.152;24.744;2023-06-22T02:52:09;14.03;;;12.83;;
8757;SDS011;4415;42.152;24.744;2023-06-22T02:54:35;15.03;;;13.60;;
8757;SDS011;4415;42.152;24.744;2023-06-22T02:57:00;14.00;;;12.80;;
8757;SDS011;4415;42.152;24.744;2023-06-22T02:59:27;14.03;;;12.97;;
8757;SDS011;4415;42.152;24.744;2023-06-22T03:01:53;15.87;;;13.60;;
8757;SDS011;4415;42.152;24.744;2023-06-22T03:04:19;14.57;;;13.27;;
8757;SDS011;4415;42.152;24.744;2023-06-22T03:06:44;14.17;;;12.77;;
8757;SDS011;4415;42.152;24.744;2023-06-22T03:09:09;14.30;;;13.00;;
8757;SDS011;4415;42.152;24.744;2023-06-22T03:11:35;13.43;;;12.37;;
8757;SDS011;4415;42.152;24.744;2023-06-22T03:14:01;12.73;;;11.60;;
8757;SDS011;4415;42.152;24.744;2023-06-22T03:16:27;13.23;;;12.17;;
8757;SDS011;4415;42.152;24.744;2023-06-22T03:18:52;13.53;;;11.00;;
8757;SDS011;4415;42.152;24.744;2023-06-22T03:21:22;12.10;;;11.00;;
8757;SDS011;4415;42.152;24.744;2023-06-22T03:23:48;11.47;;;10.60;;
8757;SDS011;4415;42.152;24.744;2023-06-22T03:26:17;11.30;;;10.37;;
8757;SDS011;4415;42.152;24.744;2023-06-22T03:28:43;12.23;;;11.33;;
8757;SDS011;4415;42.152;24.744;2023-06-22T03:31:08;11.43;;;10.37;;
8757;SDS011;4415;42.152;24.744;2023-06-22T03:33:34;11.87;;;10.83;;
8757;SDS011;4415;42.152;24.744;2023-06-22T03:35:59;10.57;;;9.77;;
8757;SDS011;4415;42.152;24.744;2023-06-22T03:38:25;11.13;;;10.07;;
8757;SDS011;4415;42.152;24.744;2023-06-22T03:40:50;12.23;;;11.20;;
8757;SDS011;4415;42.152;24.744;2023-06-22T03:43:15;12.73;;;11.37;;
8757;SDS011;4415;42.152;24.744;2023-06-22T03:45:41;11.53;;;10.53;;
8757;SDS011;4415;42.152;24.744;2023-06-22T03:48:06;11.50;;;10.40;;
8757;SDS011;4415;42.152;24.744;2023-06-22T03:50:32;12.25;;;10.95;;
8757;SDS011;4415;42.152;24.744;2023-06-22T03:52:57;11.27;;;10.20;;
8757;SDS011;4415;42.152;24.744;2023-06-22T03:55:22;10.85;;;10.00;;
8757;SDS011;4415;42.152;24.744;2023-06-22T03:57:48;10.77;;;9.98;;
8757;SDS011;4415;42.152;24.744;2023-06-22T04:00:13;10.65;;;9.70;;
8757;SDS011;4415;42.152;24.744;2023-06-22T04:02:40;10.52;;;9.73;;
8757;SDS011;4415;42.152;24.744;2023-06-22T04:05:07;10.57;;;9.70;;
8757;SDS011;4415;42.152;24.744;2023-06-22T04:07:33;10.85;;;9.60;;
8757;SDS011;4415;42.152;24.744;2023-06-22T04:09:59;10.93;;;10.00;;
8757;SDS011;4415;42.152;24.744;2023-06-22T04:12:24;11.52;;;10.27;;
8757;SDS011;4415;42.152;24.744;2023-06-22T04:14:49;10.57;;;9.70;;
8757;SDS011;4415;42.152;24.744;2023-06-22T04:17:15;11.13;;;10.23;;
8757;SDS011;4415;42.152;24.744;2023-06-22T04:19:42;10.90;;;9.93;;
8757;SDS011;4415;42.152;24.744;2023-06-22T04:22:08;11.27;;;10.02;;
8757;SDS011;4415;42.152;24.744;2023-06-22T04:24:34;10.38;;;9.43;;
8757;SDS011;4415;42.152;24.744;2023-06-22T04:27:00;10.73;;;9.73;;
8757;SDS011;4415;42.152;24.744;2023-06-22T04:29:27;11.00;;;9.93;;
8757;SDS011;4415;42.152;24.744;2023-06-22T04:31:55;10.75;;;9.85;;
8757;SDS011;4415;42.152;24.744;2023-06-22T04:34:23;12.07;;;10.32;;
8757;SDS011;4415;42.152;24.744;2023-06-22T04:36:51;11.10;;;10.15;;
8757;SDS011;4415;42.152;24.744;2023-06-22T04:39:16;11.20;;;10.20;;
8757;SDS011;4415;42.152;24.744;2023-06-22T04:41:42;10.85;;;9.85;;
8757;SDS011;4415;42.152;24.744;2023-06-22T04:44:11;10.90;;;9.80;;
8757;SDS011;4415;42.152;24.744;2023-06-22T04:46:37;11.30;;;10.40;;
8757;SDS011;4415;42.152;24.744;2023-06-22T04:49:07;10.95;;;9.90;;
8757;SDS011;4415;42.152;24.744;2023-06-22T04:51:39;10.75;;;9.85;;
8757;SDS011;4415;42.152;24.744;2023-06-22T04:54:05;11.90;;;11.00;;
8757;SDS011;4415;42.152;24.744;2023-06-22T04:56:32;12.43;;;10.73;;
8757;SDS011;4415;42.152;24.744;2023-06-22T04:58:58;11.93;;;10.73;;
8757;SDS011;4415;42.152;24.744;2023-06-22T05:01:23;133.68;;;24.38;;
8757;SDS011;4415;42.152;24.744;2023-06-22T05:03:49;18.17;;;11.60;;
8757;SDS011;4415;42.152;24.744;2023-06-22T05:06:14;12.18;;;10.90;;
8757;SDS011;4415;42.152;24.744;2023-06-22T05:08:40;11.10;;;10.10;;
8757;SDS011;4415;42.152;24.744;2023-06-22T05:11:06;12.25;;;10.15;;
8757;SDS011;4415;42.152;24.744;2023-06-22T05:13:31;14.90;;;10.38;;
8757;SDS011;4415;42.152;24.744;2023-06-22T05:15:57;10.55;;;9.75;;
8757;SDS011;4415;42.152;24.744;2023-06-22T05:18:29;11.90;;;10.70;;
8757;SDS011;4415;42.152;24.744;2023-06-22T05:21:00;11.07;;;9.77;;
8757;SDS011;4415;42.152;24.744;2023-06-22T05:23:26;15.52;;;10.50;;
8757;SDS011;4415;42.152;24.744;2023-06-22T05:25:51;11.65;;;10.45;;
8757;SDS011;4415;42.152;24.744;2023-06-22T05:28:17;12.07;;;11.07;;
8757;SDS011;4415;42.152;24.744;2023-06-22T05:30:47;11.35;;;10.13;;
8757;SDS011;4415;42.152;24.744;2023-06-22T05:33:13;10.52;;;9.52;;
8757;SDS011;4415;42.152;24.744;2023-06-22T05:35:38;10.10;;;9.15;;
8757;SDS011;4415;42.152;24.744;2023-06-22T05:38:04;13.43;;;10.25;;
8757;SDS011;4415;42.152;24.744;2023-06-22T05:40:43;10.88;;;9.88;;
8757;SDS011;4415;42.152;24.744;2023-06-22T05:43:09;38.15;;;12.40;;
8757;SDS011;4415;42.152;24.744;2023-06-22T05:45:35;15.10;;;9.63;;
8757;SDS011;4415;42.152;24.744;2023-06-22T05:48:00;16.20;;;9.50;;
8757;SDS011;4415;42.152;24.744;2023-06-22T05:50:26;22.80;;;11.10;;
8757;SDS011;4415;42.152;24.744;2023-06-22T05:52:52;15.07;;;11.80;;
8757;SDS011;4415;42.152;24.744;2023-06-22T05:55:17;18.70;;;15.68;;
8757;SDS011;4415;42.152;24.744;2023-06-22T05:57:44;16.23;;;9.95;;
8757;SDS011;4415;42.152;24.744;2023-06-22T06:00:11;13.98;;;9.48;;
8757;SDS011;4415;42.152;24.744;2023-06-22T06:02:37;10.40;;;9.52;;
8757;SDS011;4415;42.152;24.744;2023-06-22T06:05:08;10.73;;;9.75;;
8757;SDS011;4415;42.152;24.744;2023-06-22T06:07:39;27.23;;;12.18;;
8757;SDS011;4415;42.152;24.744;2023-06-22T06:10:05;18.92;;;9.88;;
8757;SDS011;4415;42.152;24.744;2023-06-22T06:12:31;12.20;;;11.20;;
8757;SDS011;4415;42.152;24.744;2023-06-22T06:14:57;11.85;;;9.38;;
8757;SDS011;4415;42.152;24.744;2023-06-22T06:17:22;9.70;;;9.07;;
8757;SDS011;4415;42.152;24.744;2023-06-22T06:19:47;9.50;;;8.63;;
8757;SDS011;4415;42.152;24.744;2023-06-22T06:22:13;9.82;;;8.55;;
8757;SDS011;4415;42.152;24.744;2023-06-22T06:24:38;10.55;;;9.23;;
8757;SDS011;4415;42.152;24.744;2023-06-22T06:27:04;9.63;;;8.98;;
8757;SDS011;4415;42.152;24.744;2023-06-22T06:29:30;13.05;;;9.40;;
8757;SDS011;4415;42.152;24.744;2023-06-22T06:31:56;10.07;;;9.07;;
8757;SDS011;4415;42.152;24.744;2023-06-22T06:34:22;10.40;;;9.35;;
8757;SDS011;4415;42.152;24.744;2023-06-22T06:36:47;10.60;;;9.63;;
8757;SDS011;4415;42.152;24.744;2023-06-22T06:39:13;10.65;;;9.57;;
8757;SDS011;4415;42.152;24.744;2023-06-22T06:41:38;10.30;;;9.50;;
8757;SDS011;4415;42.152;24.744;2023-06-22T06:44:03;10.88;;;9.73;;
8757;SDS011;4415;42.152;24.744;2023-06-22T06:46:29;11.50;;;10.30;;
8757;SDS011;4415;42.152;24.744;2023-06-22T06:48:55;11.23;;;10.30;;
8757;SDS011;4415;42.152;24.744;2023-06-22T06:51:20;10.50;;;9.70;;
8757;SDS011;4415;42.152;24.744;2023-06-22T06:53:45;9.57;;;8.63;;
8757;SDS011;4415;42.152;24.744;2023-06-22T06:56:11;9.82;;;9.13;;
8757;SDS011;4415;42.152;24.744;2023-06-22T06:58:37;11.15;;;9.73;;
8757;SDS011;4415;42.152;24.744;2023-06-22T07:01:05;15.57;;;10.68;;
8757;SDS011;4415;42.152;24.744;2023-06-22T07:03:31;10.45;;;9.40;;
8757;SDS011;4415;42.152;24.744;2023-06-22T07:05:58;9.55;;;8.73;;
8757;SDS011;4415;42.152;24.744;2023-06-22T07:08:24;10.27;;;9.38;;
8757;SDS011;4415;42.152;24.744;2023-06-22T07:10:49;9.55;;;8.77;;
8757;SDS011;4415;42.152;24.744;2023-06-22T07:13:15;13.05;;;8.90;;
8757;SDS011;4415;42.152;24.744;2023-06-22T07:15:40;10.93;;;8.95;;
8757;SDS011;4415;42.152;24.744;2023-06-22T07:18:05;9.55;;;8.85;;
8757;SDS011;4415;42.152;24.744;2023-06-22T07:20:31;13.50;;;10.00;;
8757;SDS011;4415;42.152;24.744;2023-06-22T07:22:57;9.68;;;8.90;;
8757;SDS011;4415;42.152;24.744;2023-06-22T07:25:23;8.55;;;8.05;;
8757;SDS011;4415;42.152;24.744;2023-06-22T07:27:58;10.32;;;9.23;;
8757;SDS011;4415;42.152;24.744;2023-06-22T07:30:31;15.43;;;9.90;;
8757;SDS011;4415;42.152;24.744;2023-06-22T07:32:58;10.75;;;9.75;;
8757;SDS011;4415;42.152;24.744;2023-06-22T07:35:23;11.45;;;10.55;;
8757;SDS011;4415;42.152;24.744;2023-06-22T07:37:49;14.73;;;12.55;;
8757;SDS011;4415;42.152;24.744;2023-06-22T07:40:15;11.40;;;10.40;;
8757;SDS011;4415;42.152;24.744;2023-06-22T07:42:41;12.05;;;11.15;;
8757;SDS011;4415;42.152;24.744;2023-06-22T07:45:07;10.65;;;9.82;;
8757;SDS011;4415;42.152;24.744;2023-06-22T07:47:33;11.77;;;10.82;;
8757;SDS011;4415;42.152;24.744;2023-06-22T07:50:02;10.32;;;8.90;;
8757;SDS011;4415;42.152;24.744;2023-06-22T07:52:29;10.02;;;8.98;;
8757;SDS011;4415;42.152;24.744;2023-06-22T07:54:55;11.63;;;8.93;;
8757;SDS011;4415;42.152;24.744;2023-06-22T07:57:20;8.88;;;8.15;;
8757;SDS011;4415;42.152;24.744;2023-06-22T07:59:46;10.90;;;9.90;;
8757;SDS011;4415;42.152;24.744;2023-06-22T08:02:12;14.70;;;9.88;;
8757;SDS011;4415;42.152;24.744;2023-06-22T08:04:38;10.15;;;9.23;;
8757;SDS011;4415;42.152;24.744;2023-06-22T08:07:03;10.57;;;9.55;;
8757;SDS011;4415;42.152;24.744;2023-06-22T08:09:30;9.45;;;8.60;;
8757;SDS011;4415;42.152;24.744;2023-06-22T08:11:56;10.98;;;10.00;;
8757;SDS011;4415;42.152;24.744;2023-06-22T08:14:23;9.93;;;9.23;;
8757;SDS011;4415;42.152;24.744;2023-06-22T08:16:50;10.10;;;8.88;;
8757;SDS011;4415;42.152;24.744;2023-06-22T08:19:15;10.27;;;9.38;;
8757;SDS011;4415;42.152;24.744;2023-06-22T08:21:41;12.43;;;8.80;;
8757;SDS011;4415;42.152;24.744;2023-06-22T08:24:07;8.73;;;8.07;;
8757;SDS011;4415;42.152;24.744;2023-06-22T08:26:32;10.00;;;8.02;;
8757;SDS011;4415;42.152;24.744;2023-06-22T08:29:01;11.23;;;8.73;;
8757;SDS011;4415;42.152;24.744;2023-06-22T08:31:27;8.38;;;7.72;;
8757;SDS011;4415;42.152;24.744;2023-06-22T08:33:52;16.58;;;8.23;;
8757;SDS011;4415;42.152;24.744;2023-06-22T08:36:18;9.43;;;8.63;;
8757;SDS011;4415;42.152;24.744;2023-06-22T08:38:43;8.18;;;7.68;;
8757;SDS011;4415;42.152;24.744;2023-06-22T08:41:09;8.68;;;7.97;;
8757;SDS011;4415;42.152;24.744;2023-06-22T08:43:35;8.30;;;7.80;;
8757;SDS011;4415;42.152;24.744;2023-06-22T08:46:01;8.65;;;7.78;;
8757;SDS011;4415;42.152;24.744;2023-06-22T08:48:27;9.20;;;8.32;;
8757;SDS011;4415;42.152;24.744;2023-06-22T08:50:53;8.23;;;7.35;;
8757;SDS011;4415;42.152;24.744;2023-06-22T08:53:18;7.90;;;7.30;;
8757;SDS011;4415;42.152;24.744;2023-06-22T08:55:44;10.25;;;8.45;;
8757;SDS011;4415;42.152;24.744;2023-06-22T08:58:10;9.15;;;7.78;;
8757;SDS011;4415;42.152;24.744;2023-06-22T09:00:35;8.98;;;8.23;;
8757;SDS011;4415;42.152;24.744;2023-06-22T09:03:01;10.07;;;7.78;;
8757;SDS011;4415;42.152;24.744;2023-06-22T09:05:26;8.82;;;7.95;;
8757;SDS011;4415;42.152;24.744;2023-06-22T09:07:52;8.73;;;8.15;;
8757;SDS011;4415;42.152;24.744;2023-06-22T09:10:20;8.70;;;8.10;;
8757;SDS011;4415;42.152;24.744;2023-06-22T09:12:45;8.38;;;7.72;;
8757;SDS011;4415;42.152;24.744;2023-06-22T09:15:11;8.38;;;7.78;;
8757;SDS011;4415;42.152;24.744;2023-06-22T09:17:36;7.63;;;7.22;;
8757;SDS011;4415;42.152;24.744;2023-06-22T09:20:02;8.15;;;7.50;;
8757;SDS011;4415;42.152;24.744;2023-06-22T09:22:30;7.85;;;7.45;;
8757;SDS011;4415;42.152;24.744;2023-06-22T09:24:56;8.60;;;7.97;;
8757;SDS011;4415;42.152;24.744;2023-06-22T09:27:22;8.18;;;7.53;;
8757;SDS011;4415;42.152;24.744;2023-06-22T09:29:48;8.45;;;7.88;;
8757;SDS011;4415;42.152;24.744;2023-06-22T09:32:14;7.78;;;7.28;;
8757;SDS011;4415;42.152;24.744;2023-06-22T09:34:40;8.13;;;7.65;;
8757;SDS011;4415;42.152;24.744;2023-06-22T09:37:05;8.98;;;8.38;;
8757;SDS011;4415;42.152;24.744;2023-06-22T09:39:31;9.88;;;9.07;;
8757;SDS011;4415;42.152;24.744;2023-06-22T09:41:59;9.05;;;8.35;;
8757;SDS011;4415;42.152;24.744;2023-06-22T09:44:25;8.50;;;7.85;;
8757;SDS011;4415;42.152;24.744;2023-06-22T09:46:51;8.00;;;7.53;;
8757;SDS011;4415;42.152;24.744;2023-06-22T09:49:17;7.30;;;6.90;;
8757;SDS011;4415;42.152;24.744;2023-06-22T09:51:42;10.95;;;9.63;;
8757;SDS011;4415;42.152;24.744;2023-06-22T09:54:08;14.02;;;13.13;;
8757;SDS011;4415;42.152;24.744;2023-06-22T09:56:33;9.20;;;8.50;;
8757;SDS011;4415;42.152;24.744;2023-06-22T09:58:59;9.07;;;8.00;;
8757;SDS011;4415;42.152;24.744;2023-06-22T10:01:24;10.32;;;8.15;;
8757;SDS011;4415;42.152;24.744;2023-06-22T10:03:53;8.00;;;7.38;;
8757;SDS011;4415;42.152;24.744;2023-06-22T10:06:21;7.93;;;7.25;;
8757;SDS011;4415;42.152;24.744;2023-06-22T10:08:47;8.45;;;7.85;;
8757;SDS011;4415;42.152;24.744;2023-06-22T10:11:13;7.97;;;7.47;;
8757;SDS011;4415;42.152;24.744;2023-06-22T10:13:39;7.50;;;7.10;;
8757;SDS011;4415;42.152;24.744;2023-06-22T10:16:04;7.63;;;7.22;;
8757;SDS011;4415;42.152;24.744;2023-06-22T10:18:30;8.90;;;8.20;;
8757;SDS011;4415;42.152;24.744;2023-06-22T10:20:55;7.97;;;7.47;;
8757;SDS011;4415;42.152;24.744;2023-06-22T10:23:21;8.40;;;7.80;;
8757;SDS011;4415;42.152;24.744;2023-06-22T10:25:47;8.05;;;7.35;;
8757;SDS011;4415;42.152;24.744;2023-06-22T10:28:13;8.48;;;7.80;;
8757;SDS011;4415;42.152;24.744;2023-06-22T10:30:39;8.05;;;7.50;;
8757;SDS011;4415;42.152;24.744;2023-06-22T10:33:06;8.23;;;7.70;;
8757;SDS011;4415;42.152;24.744;2023-06-22T10:35:32;7.85;;;7.35;;
8757;SDS011;4415;42.152;24.744;2023-06-22T10:37:58;8.65;;;8.05;;
8757;SDS011;4415;42.152;24.744;2023-06-22T10:40:24;7.63;;;7.10;;
8757;SDS011;4415;42.152;24.744;2023-06-22T10:42:50;8.75;;;8.15;;
8757;SDS011;4415;42.152;24.744;2023-06-22T10:45:15;9.60;;;8.93;;
8757;SDS011;4415;42.152;24.744;2023-06-22T10:47:41;8.95;;;8.15;;
8757;SDS011;4415;42.152;24.744;2023-06-22T10:50:09;9.98;;;9.13;;
8757;SDS011;4415;42.152;24.744;2023-06-22T10:52:35;11.40;;;10.20;;
8757;SDS011;4415;42.152;24.744;2023-06-22T10:55:01;10.68;;;9.80;;
8757;SDS011;4415;42.152;24.744;2023-06-22T10:57:26;8.23;;;7.50;;
8757;SDS011;4415;42.152;24.744;2023-06-22T10:59:51;8.25;;;7.65;;
8757;SDS011;4415;42.152;24.744;2023-06-22T11:02:17;7.97;;;7.47;;
8757;SDS011;4415;42.152;24.744;2023-06-22T11:04:42;10.07;;;9.30;;
8757;SDS011;4415;42.152;24.744;2023-06-22T11:07:08;9.20;;;8.40;;
8757;SDS011;4415;42.152;24.744;2023-06-22T11:09:34;8.48;;;7.82;;
8757;SDS011;4415;42.152;24.744;2023-06-22T11:12:00;8.20;;;7.70;;
8757;SDS011;4415;42.152;24.744;2023-06-22T11:14:25;12.38;;;7.82;;
8757;SDS011;4415;42.152;24.744;2023-06-22T11:16:51;8.15;;;7.65;;
8757;SDS011;4415;42.152;24.744;2023-06-22T11:19:17;7.93;;;7.32;;
8757;SDS011;4415;42.152;24.744;2023-06-22T11:21:43;7.60;;;7.10;;
8757;SDS011;4415;42.152;24.744;2023-06-22T11:24:08;8.82;;;8.20;;
8757;SDS011;4415;42.152;24.744;2023-06-22T11:26:34;109.28;;;16.02;;
8757;SDS011;4415;42.152;24.744;2023-06-22T11:29:00;15.65;;;8.15;;
8757;SDS011;4415;42.152;24.744;2023-06-22T11:31:25;8.48;;;7.88;;
8757;SDS011;4415;42.152;24.744;2023-06-22T11:33:51;8.55;;;8.00;;
8757;SDS011;4415;42.152;24.744;2023-06-22T11:36:16;8.45;;;7.95;;
8757;SDS011;4415;42.152;24.744;2023-06-22T11:38:42;8.45;;;7.90;;
8757;SDS011;4415;42.152;24.744;2023-06-22T11:41:09;7.72;;;7.32;;
8757;SDS011;4415;42.152;24.744;2023-06-22T11:43:35;10.50;;;9.60;;
8757;SDS011;4415;42.152;24.744;2023-06-22T11:46:05;8.85;;;8.18;;
8757;SDS011;4415;42.152;24.744;2023-06-22T11:48:30;8.98;;;8.43;;
8757;SDS011;4415;42.152;24.744;2023-06-22T11:50:56;7.75;;;7.35;;
8757;SDS011;4415;42.152;24.744;2023-06-22T11:53:23;8.65;;;7.88;;
8757;SDS011;4415;42.152;24.744;2023-06-22T11:55:50;8.90;;;8.20;;
8757;SDS011;4415;42.152;24.744;2023-06-22T11:58:16;8.10;;;7.70;;
8757;SDS011;4415;42.152;24.744;2023-06-22T12:00:42;8.15;;;7.55;;
8757;SDS011;4415;42.152;24.744;2023-06-22T12:03:08;8.02;;;7.60;;
8757;SDS011;4415;42.152;24.744;2023-06-22T12:05:34;8.02;;;7.53;;
8757;SDS011;4415;42.152;24.744;2023-06-22T12:07:59;8.05;;;7.60;;
8757;SDS011;4415;42.152;24.744;2023-06-22T12:10:25;8.10;;;7.70;;
8757;SDS011;4415;42.152;24.744;2023-06-22T12:12:53;10.68;;;9.68;;
8757;SDS011;4415;42.152;24.744;2023-06-22T12:15:19;8.77;;;8.18;;
8757;SDS011;4415;42.152;24.744;2023-06-22T12:17:44;10.93;;;9.93;;
8757;SDS011;4415;42.152;24.744;2023-06-22T12:20:10;8.75;;;7.72;;
8757;SDS011;4415;42.152;24.744;2023-06-22T12:22:35;8.07;;;7.47;;
8757;SDS011;4415;42.152;24.744;2023-06-22T12:25:02;8.48;;;7.78;;
8757;SDS011;4415;42.152;24.744;2023-06-22T12:27:28;8.18;;;7.57;;
8757;SDS011;4415;42.152;24.744;2023-06-22T12:29:55;8.38;;;7.85;;
8757;SDS011;4415;42.152;24.744;2023-06-22T12:32:21;8.60;;;8.10;;
8757;SDS011;4415;42.152;24.744;2023-06-22T12:34:46;8.70;;;7.95;;
8757;SDS011;4415;42.152;24.744;2023-06-22T12:37:11;13.75;;;12.40;;
8757;SDS011;4415;42.152;24.744;2023-06-22T12:39:37;10.30;;;9.40;;
8757;SDS011;4415;42.152;24.744;2023-06-22T12:42:06;9.43;;;8.82;;
8757;SDS011;4415;42.152;24.744;2023-06-22T12:44:34;8.27;;;7.82;;
8757;SDS011;4415;42.152;24.744;2023-06-22T12:47:00;14.73;;;13.30;;
8757;SDS011;4415;42.152;24.744;2023-06-22T12:49:25;10.35;;;9.48;;
8757;SDS011;4415;42.152;24.744;2023-06-22T12:51:51;8.90;;;8.30;;
8757;SDS011;4415;42.152;24.744;2023-06-22T12:54:16;8.43;;;7.93;;
8757;SDS011;4415;42.152;24.744;2023-06-22T12:56:42;9.80;;;9.10;;
8757;SDS011;4415;42.152;24.744;2023-06-22T12:59:10;9.02;;;8.32;;
8757;SDS011;4415;42.152;24.744;2023-06-22T13:01:36;9.70;;;8.80;;
8757;SDS011;4415;42.152;24.744;2023-06-22T13:04:02;8.95;;;8.30;;
8757;SDS011;4415;42.152;24.744;2023-06-22T13:06:28;8.23;;;7.72;;
8757;SDS011;4415;42.152;24.744;2023-06-22T13:08:53;9.25;;;8.65;;
8757;SDS011;4415;42.152;24.744;2023-06-22T13:11:19;9.02;;;8.27;;
8757;SDS011;4415;42.152;24.744;2023-06-22T13:13:44;8.68;;;7.97;;
8757;SDS011;4415;42.152;24.744;2023-06-22T13:16:10;8.35;;;7.85;;
8757;SDS011;4415;42.152;24.744;2023-06-22T13:18:35;8.60;;;7.97;;
8757;SDS011;4415;42.152;24.744;2023-06-22T13:21:01;8.15;;;7.55;;
8757;SDS011;4415;42.152;24.744;2023-06-22T13:23:27;8.55;;;7.88;;
8757;SDS011;4415;42.152;24.744;2023-06-22T13:25:53;8.15;;;7.55;;
8757;SDS011;4415;42.152;24.744;2023-06-22T13:28:18;7.88;;;7.43;;
8757;SDS011;4415;42.152;24.744;2023-06-22T13:30:46;11.43;;;8.25;;
8757;SDS011;4415;42.152;24.744;2023-06-22T13:33:15;9.48;;;8.10;;
8757;SDS011;4415;42.152;24.744;2023-06-22T13:35:41;8.77;;;7.95;;
8757;SDS011;4415;42.152;24.744;2023-06-22T13:38:10;8.20;;;7.70;;
8757;SDS011;4415;42.152;24.744;2023-06-22T13:40:36;8.52;;;7.80;;
8757;SDS011;4415;42.152;24.744;2023-06-22T13:43:04;8.70;;;8.05;;
8757;SDS011;4415;42.152;24.744;2023-06-22T13:45:30;8.32;;;7.82;;
8757;SDS011;4415;42.152;24.744;2023-06-22T13:47:56;8.10;;;7.60;;
8757;SDS011;4415;42.152;24.744;2023-06-22T13:50:21;10.30;;;8.45;;
8757;SDS011;4415;42.152;24.744;2023-06-22T13:52:46;9.32;;;8.63;;
8757;SDS011;4415;42.152;24.744;2023-06-22T13:55:12;8.45;;;7.85;;
8757;SDS011;4415;42.152;24.744;2023-06-22T13:57:39;8.07;;;7.57;;
8757;SDS011;4415;42.152;24.744;2023-06-22T14:00:05;9.05;;;8.25;;
8757;SDS011;4415;42.152;24.744;2023-06-22T14:02:31;9.20;;;8.30;;
8757;SDS011;4415;42.152;24.744;2023-06-22T14:04:56;8.75;;;8.05;;
8757;SDS011;4415;42.152;24.744;2023-06-22T14:07:22;8.98;;;8.27;;
8757;SDS011;4415;42.152;24.744;2023-06-22T14:09:49;8.73;;;8.10;;
8757;SDS011;4415;42.152;24.744;2023-06-22T14:12:14;9.25;;;8.65;;
8757;SDS011;4415;42.152;24.744;2023-06-22T14:14:40;9.32;;;8.70;;
8757;SDS011;4415;42.152;24.744;2023-06-22T14:17:06;9.05;;;8.35;;
8757;SDS011;4415;42.152;24.744;2023-06-22T14:19:31;9.65;;;8.90;;
8757;SDS011;4415;42.152;24.744;2023-06-22T14:21:57;8.82;;;8.23;;
8757;SDS011;4415;42.152;24.744;2023-06-22T14:24:22;9.40;;;8.65;;
8757;SDS011;4415;42.152;24.744;2023-06-22T14:26:48;9.70;;;9.07;;
8757;SDS011;4415;42.152;24.744;2023-06-22T14:29:14;8.48;;;7.88;;
8757;SDS011;4415;42.152;24.744;2023-06-22T14:31:39;8.73;;;8.13;;
8757;SDS011;4415;42.152;24.744;2023-06-22T14:34:05;8.88;;;8.32;;
8757;SDS011;4415;42.152;24.744;2023-06-22T14:36:31;10.32;;;9.55;;
8757;SDS011;4415;42.152;24.744;2023-06-22T14:38:56;9.00;;;8.40;;
8757;SDS011;4415;42.152;24.744;2023-06-22T14:41:22;10.07;;;9.27;;
8757;SDS011;4415;42.152;24.744;2023-06-22T14:43:47;9.95;;;9.35;;
8757;SDS011;4415;42.152;24.744;2023-06-22T14:46:14;10.48;;;9.55;;
8757;SDS011;4415;42.152;24.744;2023-06-22T14:48:41;9.77;;;8.98;;
8757;SDS011;4415;42.152;24.744;2023-06-22T14:51:07;10.18;;;8.82;;